Terminal Aerodrome Forecast
Issued by NWS Charleston, WV

Home | Current Version | Previous Version | Text Only | Print | Product List | Glossary On
Versions: 1 2 3 4 5 6 7 8 9 10 11 12 13 14 15 16 17 18 19 20 21 22 23
221
FTUS41 KRLX 251730
TAFHTS
TAF
KHTS 251730Z 2518/2618 20011KT P6SM BKN130
     FM252000 22005KT P6SM VCTS BKN070CB
     FM252300 VRB03KT P6SM BKN045
     FM261600 20005KT P6SM SCT070=

USA.gov is the U.S. government's official web portal to all federal, state and local government web resources and services.